sensor_id;sensor_type;location;lat;lon;timestamp;temperature;humidity
75471;HTU21D;64051;46.320;48.028;2022-12-07T00:01:20;-11.26;66.06
75471;HTU21D;64051;46.320;48.028;2022-12-07T00:03:48;-11.30;65.18
75471;HTU21D;64051;46.320;48.028;2022-12-07T00:06:16;-11.31;65.42
75471;HTU21D;64051;46.320;48.028;2022-12-07T00:08:43;-11.33;64.66
75471;HTU21D;64051;46.320;48.028;2022-12-07T00:11:15;-11.34;64.88
75471;HTU21D;64051;46.320;48.028;2022-12-07T00:13:42;-11.35;64.59
75471;HTU21D;64051;46.320;48.028;2022-12-07T00:16:17;-11.36;64.55
75471;HTU21D;64051;46.320;48.028;2022-12-07T00:18:44;-11.39;64.93
75471;HTU21D;64051;46.320;48.028;2022-12-07T00:21:12;-11.40;64.86
75471;HTU21D;64051;46.320;48.028;2022-12-07T00:23:39;-11.40;64.91
75471;HTU21D;64051;46.320;48.028;2022-12-07T00:26:07;-11.46;64.87
75471;HTU21D;64051;46.320;48.028;2022-12-07T00:28:33;-11.48;65.14
75471;HTU21D;64051;46.320;48.028;2022-12-07T00:31:01;-11.51;64.52
75471;HTU21D;64051;46.320;48.028;2022-12-07T00:33:27;-11.54;65.23
75471;HTU21D;64051;46.320;48.028;2022-12-07T00:35:58;-11.58;64.44
75471;HTU21D;64051;46.320;48.028;2022-12-07T00:38:24;-11.62;64.34
75471;HTU21D;64051;46.320;48.028;2022-12-07T00:40:57;-11.66;65.54
75471;HTU21D;64051;46.320;48.028;2022-12-07T00:43:24;-11.70;65.36
75471;HTU21D;64051;46.320;48.028;2022-12-07T00:45:50;-11.77;65.99
75471;HTU21D;64051;46.320;48.028;2022-12-07T00:48:16;-11.81;66.15
75471;HTU21D;64051;46.320;48.028;2022-12-07T00:50:42;-11.84;67.07
75471;HTU21D;64051;46.320;48.028;2022-12-07T00:53:08;-11.83;66.96
75471;HTU21D;64051;46.320;48.028;2022-12-07T00:55:35;-11.85;65.23
75471;HTU21D;64051;46.320;48.028;2022-12-07T00:58:01;-11.83;65.18
75471;HTU21D;64051;46.320;48.028;2022-12-07T01:00:27;-11.81;65.53
75471;HTU21D;64051;46.320;48.028;2022-12-07T01:02:53;-11.81;65.33
75471;HTU21D;64051;46.320;48.028;2022-12-07T01:05:19;-11.82;65.74
75471;HTU21D;64051;46.320;48.028;2022-12-07T01:07:45;-11.83;65.92
75471;HTU21D;64051;46.320;48.028;2022-12-07T01:10:13;-11.82;65.46
75471;HTU21D;64051;46.320;48.028;2022-12-07T01:12:39;-11.83;66.77
75471;HTU21D;64051;46.320;48.028;2022-12-07T01:15:06;-11.83;65.58
75471;HTU21D;64051;46.320;48.028;2022-12-07T01:17:32;-11.82;65.20
75471;HTU21D;64051;46.320;48.028;2022-12-07T01:19:58;-11.81;65.30
75471;HTU21D;64051;46.320;48.028;2022-12-07T01:22:24;-11.79;65.33
75471;HTU21D;64051;46.320;48.028;2022-12-07T01:24:50;-11.78;65.71
75471;HTU21D;64051;46.320;48.028;2022-12-07T01:27:16;-11.78;66.55
75471;HTU21D;64051;46.320;48.028;2022-12-07T01:29:42;-11.74;65.74
75471;HTU21D;64051;46.320;48.028;2022-12-07T01:32:08;-11.71;66.00
75471;HTU21D;64051;46.320;48.028;2022-12-07T01:34:34;-11.71;65.78
75471;HTU21D;64051;46.320;48.028;2022-12-07T01:37:02;-11.70;65.62
75471;HTU21D;64051;46.320;48.028;2022-12-07T01:39:28;-11.73;67.19
75471;HTU21D;64051;46.320;48.028;2022-12-07T01:41:55;-11.75;66.23
75471;HTU21D;64051;46.320;48.028;2022-12-07T01:44:26;-11.77;65.59
75471;HTU21D;64051;46.320;48.028;2022-12-07T01:46:56;-11.81;66.09
75471;HTU21D;64051;46.320;48.028;2022-12-07T01:51:53;-11.88;67.68
75471;HTU21D;64051;46.320;48.028;2022-12-07T01:54:21;-11.88;66.27
75471;HTU21D;64051;46.320;48.028;2022-12-07T01:56:51;-11.90;67.13
75471;HTU21D;64051;46.320;48.028;2022-12-07T01:59:20;-11.91;66.17
75471;HTU21D;64051;46.320;48.028;2022-12-07T02:01:47;-11.95;66.35
75471;HTU21D;64051;46.320;48.028;2022-12-07T02:04:13;-11.99;65.89
75471;HTU21D;64051;46.320;48.028;2022-12-07T02:06:40;-12.05;66.69
75471;HTU21D;64051;46.320;48.028;2022-12-07T02:09:07;-12.12;68.91
75471;HTU21D;64051;46.320;48.028;2022-12-07T02:11:33;-12.15;66.54
75471;HTU21D;64051;46.320;48.028;2022-12-07T02:13:59;-12.20;66.78
75471;HTU21D;64051;46.320;48.028;2022-12-07T02:19:37;-12.28;66.97
75471;HTU21D;64051;46.320;48.028;2022-12-07T02:23:12;-12.32;66.31
75471;HTU21D;64051;46.320;48.028;2022-12-07T02:27:56;-12.36;65.89
75471;HTU21D;64051;46.320;48.028;2022-12-07T02:30:28;-12.35;66.85
75471;HTU21D;64051;46.320;48.028;2022-12-07T02:35:53;-12.37;66.20
75471;HTU21D;64051;46.320;48.028;2022-12-07T02:38:51;-12.39;66.55
75471;HTU21D;64051;46.320;48.028;2022-12-07T02:41:20;-12.40;66.01
75471;HTU21D;64051;46.320;48.028;2022-12-07T02:44:03;-12.43;65.93
75471;HTU21D;64051;46.320;48.028;2022-12-07T02:46:33;-12.43;66.13
75471;HTU21D;64051;46.320;48.028;2022-12-07T02:48:59;-12.47;66.75
75471;HTU21D;64051;46.320;48.028;2022-12-07T02:51:30;-12.49;67.06
75471;HTU21D;64051;46.320;48.028;2022-12-07T02:53:56;-12.51;67.52
75471;HTU21D;64051;46.320;48.028;2022-12-07T03:02:36;-12.55;66.53
75471;HTU21D;64051;46.320;48.028;2022-12-07T03:07:54;-12.63;67.25
75471;HTU21D;64051;46.320;48.028;2022-12-07T03:10:54;-12.68;67.79
75471;HTU21D;64051;46.320;48.028;2022-12-07T03:14:08;-12.70;67.16
75471;HTU21D;64051;46.320;48.028;2022-12-07T03:16:17;-12.73;67.86
75471;HTU21D;64051;46.320;48.028;2022-12-07T03:19:36;-12.73;66.69
75471;HTU21D;64051;46.320;48.028;2022-12-07T03:21:47;-12.78;66.99
75471;HTU21D;64051;46.320;48.028;2022-12-07T03:24:24;-12.79;67.07
75471;HTU21D;64051;46.320;48.028;2022-12-07T03:27:07;-12.79;66.52
75471;HTU21D;64051;46.320;48.028;2022-12-07T03:29:42;-12.81;66.69
75471;HTU21D;64051;46.320;48.028;2022-12-07T03:35:18;-12.84;66.63
75471;HTU21D;64051;46.320;48.028;2022-12-07T03:40:28;-12.91;67.52
75471;HTU21D;64051;46.320;48.028;2022-12-07T03:42:56;-12.95;67.97
75471;HTU21D;64051;46.320;48.028;2022-12-07T03:45:33;-12.96;67.79
75471;HTU21D;64051;46.320;48.028;2022-12-07T03:51:10;-13.03;67.75
75471;HTU21D;64051;46.320;48.028;2022-12-07T03:53:58;-13.06;67.90
75471;HTU21D;64051;46.320;48.028;2022-12-07T03:56:26;-13.07;67.27
75471;HTU21D;64051;46.320;48.028;2022-12-07T03:58:56;-13.06;67.43
75471;HTU21D;64051;46.320;48.028;2022-12-07T04:01:23;-13.10;68.28
75471;HTU21D;64051;46.320;48.028;2022-12-07T04:03:49;-13.10;67.64
75471;HTU21D;64051;46.320;48.028;2022-12-07T04:06:15;-13.11;67.59
75471;HTU21D;64051;46.320;48.028;2022-12-07T04:08:41;-13.10;67.45
75471;HTU21D;64051;46.320;48.028;2022-12-07T04:11:10;-13.07;66.91
75471;HTU21D;64051;46.320;48.028;2022-12-07T04:13:36;-13.08;67.17
75471;HTU21D;64051;46.320;48.028;2022-12-07T04:16:22;-13.06;67.51
75471;HTU21D;64051;46.320;48.028;2022-12-07T04:18:48;-13.03;67.46
75471;HTU21D;64051;46.320;48.028;2022-12-07T04:21:14;-12.99;66.63
75471;HTU21D;64051;46.320;48.028;2022-12-07T04:23:40;-12.95;67.26
75471;HTU21D;64051;46.320;48.028;2022-12-07T04:26:06;-12.93;68.40
75471;HTU21D;64051;46.320;48.028;2022-12-07T04:28:32;-12.89;68.17
75471;HTU21D;64051;46.320;48.028;2022-12-07T04:30:58;-12.86;68.46
75471;HTU21D;64051;46.320;48.028;2022-12-07T04:33:24;-12.83;67.64
75471;HTU21D;64051;46.320;48.028;2022-12-07T04:35:50;-12.79;67.75
75471;HTU21D;64051;46.320;48.028;2022-12-07T04:38:16;-12.74;67.73
75471;HTU21D;64051;46.320;48.028;2022-12-07T04:40:42;-12.74;68.55
75471;HTU21D;64051;46.320;48.028;2022-12-07T04:43:08;-12.71;67.73
75471;HTU21D;64051;46.320;48.028;2022-12-07T04:45:34;-12.67;67.65
75471;HTU21D;64051;46.320;48.028;2022-12-07T04:48:02;-12.62;67.49
75471;HTU21D;64051;46.320;48.028;2022-12-07T04:50:28;-12.58;68.16
75471;HTU21D;64051;46.320;48.028;2022-12-07T04:52:54;-12.53;69.39
75471;HTU21D;64051;46.320;48.028;2022-12-07T04:55:20;-12.49;69.48
75471;HTU21D;64051;46.320;48.028;2022-12-07T04:57:46;-12.42;69.10
75471;HTU21D;64051;46.320;48.028;2022-12-07T05:00:12;-12.37;69.74
75471;HTU21D;64051;46.320;48.028;2022-12-07T05:02:38;-12.30;70.40
75471;HTU21D;64051;46.320;48.028;2022-12-07T05:05:04;-12.25;69.81
75471;HTU21D;64051;46.320;48.028;2022-12-07T05:07:30;-12.22;68.72
75471;HTU21D;64051;46.320;48.028;2022-12-07T05:09:56;-12.22;69.33
75471;HTU21D;64051;46.320;48.028;2022-12-07T05:12:25;-12.19;68.78
75471;HTU21D;64051;46.320;48.028;2022-12-07T05:14:51;-12.17;69.12
75471;HTU21D;64051;46.320;48.028;2022-12-07T05:17:17;-12.12;69.12
75471;HTU21D;64051;46.320;48.028;2022-12-07T05:19:46;-12.12;69.00
75471;HTU21D;64051;46.320;48.028;2022-12-07T05:22:12;-12.11;69.87
75471;HTU21D;64051;46.320;48.028;2022-12-07T05:24:39;-12.05;68.20
75471;HTU21D;64051;46.320;48.028;2022-12-07T05:27:05;-11.98;68.70
75471;HTU21D;64051;46.320;48.028;2022-12-07T05:29:31;-11.94;68.96
75471;HTU21D;64051;46.320;48.028;2022-12-07T05:31:57;-11.88;68.31
75471;HTU21D;64051;46.320;48.028;2022-12-07T05:34:22;-11.84;68.20
75471;HTU21D;64051;46.320;48.028;2022-12-07T05:36:48;-11.79;68.01
75471;HTU21D;64051;46.320;48.028;2022-12-07T05:39:16;-11.75;68.84
75471;HTU21D;64051;46.320;48.028;2022-12-07T05:41:42;-11.68;70.40
75471;HTU21D;64051;46.320;48.028;2022-12-07T05:44:27;-11.62;69.41
75471;HTU21D;64051;46.320;48.028;2022-12-07T05:46:53;-11.55;70.81
75471;HTU21D;64051;46.320;48.028;2022-12-07T05:49:20;-11.50;68.55
75471;HTU21D;64051;46.320;48.028;2022-12-07T05:51:52;-11.45;68.91
75471;HTU21D;64051;46.320;48.028;2022-12-07T05:54:18;-11.36;68.77
75471;HTU21D;64051;46.320;48.028;2022-12-07T05:56:50;-11.31;68.51
75471;HTU21D;64051;46.320;48.028;2022-12-07T05:59:19;-11.25;69.57
75471;HTU21D;64051;46.320;48.028;2022-12-07T06:01:53;-11.21;69.10
75471;HTU21D;64051;46.320;48.028;2022-12-07T06:04:20;-11.17;68.71
75471;HTU21D;64051;46.320;48.028;2022-12-07T06:06:47;-11.09;69.32
75471;HTU21D;64051;46.320;48.028;2022-12-07T06:09:14;-10.99;69.26
75471;HTU21D;64051;46.320;48.028;2022-12-07T06:11:40;-10.86;71.29
75471;HTU21D;64051;46.320;48.028;2022-12-07T06:14:25;-10.74;70.98
75471;HTU21D;64051;46.320;48.028;2022-12-07T06:16:51;-10.64;69.98
75471;HTU21D;64051;46.320;48.028;2022-12-07T06:19:17;-10.53;70.51
75471;HTU21D;64051;46.320;48.028;2022-12-07T06:21:43;-10.44;69.41
75471;HTU21D;64051;46.320;48.028;2022-12-07T06:24:14;-10.32;70.19
75471;HTU21D;64051;46.320;48.028;2022-12-07T06:26:41;-10.21;70.30
75471;HTU21D;64051;46.320;48.028;2022-12-07T06:29:07;-10.12;69.62
75471;HTU21D;64051;46.320;48.028;2022-12-07T06:31:34;-10.04;69.61
75471;HTU21D;64051;46.320;48.028;2022-12-07T06:34:02;-9.97;69.94
75471;HTU21D;64051;46.320;48.028;2022-12-07T06:36:28;-9.89;69.68
75471;HTU21D;64051;46.320;48.028;2022-12-07T06:38:55;-9.82;69.71
75471;HTU21D;64051;46.320;48.028;2022-12-07T06:41:21;-9.73;69.46
75471;HTU21D;64051;46.320;48.028;2022-12-07T06:43:47;-9.64;69.10
75471;HTU21D;64051;46.320;48.028;2022-12-07T06:46:14;-9.56;69.55
75471;HTU21D;64051;46.320;48.028;2022-12-07T06:48:44;-9.47;69.08
75471;HTU21D;64051;46.320;48.028;2022-12-07T06:51:10;-9.34;68.75
75471;HTU21D;64051;46.320;48.028;2022-12-07T06:53:38;-9.23;70.87
75471;HTU21D;64051;46.320;48.028;2022-12-07T06:56:05;-9.10;69.29
75471;HTU21D;64051;46.320;48.028;2022-12-07T06:58:31;-8.99;69.27
75471;HTU21D;64051;46.320;48.028;2022-12-07T07:01:11;-8.84;70.21
75471;HTU21D;64051;46.320;48.028;2022-12-07T07:03:38;-8.67;70.58
75471;HTU21D;64051;46.320;48.028;2022-12-07T07:06:07;-8.50;70.93
75471;HTU21D;64051;46.320;48.028;2022-12-07T07:08:34;-8.35;70.83
75471;HTU21D;64051;46.320;48.028;2022-12-07T07:11:00;-8.23;70.68
75471;HTU21D;64051;46.320;48.028;2022-12-07T07:13:27;-8.11;69.54
75471;HTU21D;64051;46.320;48.028;2022-12-07T07:15:55;-7.97;69.73
75471;HTU21D;64051;46.320;48.028;2022-12-07T07:18:22;-7.84;69.44
75471;HTU21D;64051;46.320;48.028;2022-12-07T07:20:49;-7.77;68.91
75471;HTU21D;64051;46.320;48.028;2022-12-07T07:23:18;-7.71;68.59
75471;HTU21D;64051;46.320;48.028;2022-12-07T07:25:45;-7.61;69.45
75471;HTU21D;64051;46.320;48.028;2022-12-07T07:28:11;-7.50;69.18
75471;HTU21D;64051;46.320;48.028;2022-12-07T07:30:42;-7.37;68.80
75471;HTU21D;64051;46.320;48.028;2022-12-07T07:33:09;-7.29;69.35
75471;HTU21D;64051;46.320;48.028;2022-12-07T07:35:36;-7.21;69.00
75471;HTU21D;64051;46.320;48.028;2022-12-07T07:38:02;-7.12;69.36
75471;HTU21D;64051;46.320;48.028;2022-12-07T07:40:29;-6.98;69.60
75471;HTU21D;64051;46.320;48.028;2022-12-07T07:42:56;-6.82;69.81
75471;HTU21D;64051;46.320;48.028;2022-12-07T07:45:23;-6.71;68.87
75471;HTU21D;64051;46.320;48.028;2022-12-07T07:47:51;-6.61;68.73
75471;HTU21D;64051;46.320;48.028;2022-12-07T07:50:17;-6.50;68.42
75471;HTU21D;64051;46.320;48.028;2022-12-07T07:52:44;-6.47;68.19
75471;HTU21D;64051;46.320;48.028;2022-12-07T07:55:11;-6.46;68.26
75471;HTU21D;64051;46.320;48.028;2022-12-07T07:57:38;-6.43;68.01
75471;HTU21D;64051;46.320;48.028;2022-12-07T08:00:12;-6.38;68.48
75471;HTU21D;64051;46.320;48.028;2022-12-07T08:02:53;-6.32;68.78
75471;HTU21D;64051;46.320;48.028;2022-12-07T08:05:19;-6.16;68.58
75471;HTU21D;64051;46.320;48.028;2022-12-07T08:07:59;-6.01;68.64
75471;HTU21D;64051;46.320;48.028;2022-12-07T08:10:29;-5.94;68.17
75471;HTU21D;64051;46.320;48.028;2022-12-07T08:12:55;-5.90;68.30
75471;HTU21D;64051;46.320;48.028;2022-12-07T08:15:46;-5.86;68.14
75471;HTU21D;64051;46.320;48.028;2022-12-07T08:18:16;-5.81;67.95
75471;HTU21D;64051;46.320;48.028;2022-12-07T08:20:48;-5.72;68.14
75471;HTU21D;64051;46.320;48.028;2022-12-07T08:23:14;-5.63;68.01
75471;HTU21D;64051;46.320;48.028;2022-12-07T08:25:40;-5.58;67.78
75471;HTU21D;64051;46.320;48.028;2022-12-07T08:28:06;-5.59;67.61
75471;HTU21D;64051;46.320;48.028;2022-12-07T08:30:34;-5.58;67.68
75471;HTU21D;64051;46.320;48.028;2022-12-07T08:33:03;-5.59;67.46
75471;HTU21D;64051;46.320;48.028;2022-12-07T08:35:38;-5.62;67.49
75471;HTU21D;64051;46.320;48.028;2022-12-07T08:38:05;-5.70;67.60
75471;HTU21D;64051;46.320;48.028;2022-12-07T08:40:31;-5.75;67.41
75471;HTU21D;64051;46.320;48.028;2022-12-07T08:42:59;-5.84;67.35
75471;HTU21D;64051;46.320;48.028;2022-12-07T08:45:28;-5.91;67.37
75471;HTU21D;64051;46.320;48.028;2022-12-07T08:48:03;-5.94;67.77
75471;HTU21D;64051;46.320;48.028;2022-12-07T08:50:32;-5.96;68.01
75471;HTU21D;64051;46.320;48.028;2022-12-07T08:53:00;-5.93;67.88
75471;HTU21D;64051;46.320;48.028;2022-12-07T08:55:27;-5.85;68.04
75471;HTU21D;64051;46.320;48.028;2022-12-07T08:57:59;-5.70;68.37
75471;HTU21D;64051;46.320;48.028;2022-12-07T09:00:26;-5.56;68.08
75471;HTU21D;64051;46.320;48.028;2022-12-07T09:02:55;-5.41;68.09
75471;HTU21D;64051;46.320;48.028;2022-12-07T09:05:26;-5.26;67.56
75471;HTU21D;64051;46.320;48.028;2022-12-07T09:07:58;-5.15;67.41
75471;HTU21D;64051;46.320;48.028;2022-12-07T09:10:28;-5.01;67.33
75471;HTU21D;64051;46.320;48.028;2022-12-07T09:13:01;-4.89;67.22
75471;HTU21D;64051;46.320;48.028;2022-12-07T09:15:28;-4.78;66.57
75471;HTU21D;64051;46.320;48.028;2022-12-07T09:17:57;-4.68;66.94
75471;HTU21D;64051;46.320;48.028;2022-12-07T09:20:26;-4.57;66.12
75471;HTU21D;64051;46.320;48.028;2022-12-07T09:23:01;-4.49;66.57
75471;HTU21D;64051;46.320;48.028;2022-12-07T09:25:30;-4.45;66.63
75471;HTU21D;64051;46.320;48.028;2022-12-07T09:27:57;-4.41;66.02
75471;HTU21D;64051;46.320;48.028;2022-12-07T09:30:26;-4.30;66.03
75471;HTU21D;64051;46.320;48.028;2022-12-07T09:32:54;-4.17;66.17
75471;HTU21D;64051;46.320;48.028;2022-12-07T09:35:20;-4.10;65.84
75471;HTU21D;64051;46.320;48.028;2022-12-07T09:37:52;-4.05;65.66
75471;HTU21D;64051;46.320;48.028;2022-12-07T09:40:22;-3.98;65.75
75471;HTU21D;64051;46.320;48.028;2022-12-07T09:42:52;-3.97;64.90
75471;HTU21D;64051;46.320;48.028;2022-12-07T09:45:33;-3.94;64.74
75471;HTU21D;64051;46.320;48.028;2022-12-07T09:48:05;-3.95;65.13
75471;HTU21D;64051;46.320;48.028;2022-12-07T09:50:35;-4.00;64.96
75471;HTU21D;64051;46.320;48.028;2022-12-07T09:53:27;-4.05;65.40
75471;HTU21D;64051;46.320;48.028;2022-12-07T09:55:54;-4.09;65.01
75471;HTU21D;64051;46.320;48.028;2022-12-07T09:58:25;-4.11;65.64
75471;HTU21D;64051;46.320;48.028;2022-12-07T10:01:16;-4.12;65.30
75471;HTU21D;64051;46.320;48.028;2022-12-07T10:03:54;-4.19;65.44
75471;HTU21D;64051;46.320;48.028;2022-12-07T10:06:21;-4.25;65.47
75471;HTU21D;64051;46.320;48.028;2022-12-07T10:08:53;-4.29;65.50
75471;HTU21D;64051;46.320;48.028;2022-12-07T10:11:19;-4.30;65.91
75471;HTU21D;64051;46.320;48.028;2022-12-07T10:13:52;-4.28;65.75
75471;HTU21D;64051;46.320;48.028;2022-12-07T10:16:38;-4.28;65.78
75471;HTU21D;64051;46.320;48.028;2022-12-07T10:19:28;-4.28;65.89
75471;HTU21D;64051;46.320;48.028;2022-12-07T10:22:07;-4.29;65.78
75471;HTU21D;64051;46.320;48.028;2022-12-07T10:24:39;-4.30;66.05
75471;HTU21D;64051;46.320;48.028;2022-12-07T10:27:19;-4.24;66.16
75471;HTU21D;64051;46.320;48.028;2022-12-07T10:29:51;-4.16;66.17
75471;HTU21D;64051;46.320;48.028;2022-12-07T10:34:47;-4.09;65.93
75471;HTU21D;64051;46.320;48.028;2022-12-07T10:37:18;-4.09;65.77
75471;HTU21D;64051;46.320;48.028;2022-12-07T10:39:52;-4.09;65.30
75471;HTU21D;64051;46.320;48.028;2022-12-07T10:42:29;-4.11;65.46
75471;HTU21D;64051;46.320;48.028;2022-12-07T10:45:17;-4.17;65.08
75471;HTU21D;64051;46.320;48.028;2022-12-07T11:10:52;-4.29;65.72
75471;HTU21D;64051;46.320;48.028;2022-12-07T11:18:52;-4.31;64.70
75471;HTU21D;64051;46.320;48.028;2022-12-07T11:21:39;-4.40;64.85
75471;HTU21D;64051;46.320;48.028;2022-12-07T11:27:43;-4.53;65.19
75471;HTU21D;64051;46.320;48.028;2022-12-07T11:35:36;-4.73;65.21
75471;HTU21D;64051;46.320;48.028;2022-12-07T11:38:17;-4.85;65.27
75471;HTU21D;64051;46.320;48.028;2022-12-07T11:40:48;-4.96;65.26
75471;HTU21D;64051;46.320;48.028;2022-12-07T11:44:06;-5.07;65.47
75471;HTU21D;64051;46.320;48.028;2022-12-07T11:49:37;-5.22;65.85
75471;HTU21D;64051;46.320;48.028;2022-12-07T11:55:24;-5.33;66.05
75471;HTU21D;64051;46.320;48.028;2022-12-07T11:58:04;-5.39;66.04
75471;HTU21D;64051;46.320;48.028;2022-12-07T12:00:32;-5.44;66.13
75471;HTU21D;64051;46.320;48.028;2022-12-07T12:03:09;-5.48;66.67
75471;HTU21D;64051;46.320;48.028;2022-12-07T12:05:40;-5.52;66.20
75471;HTU21D;64051;46.320;48.028;2022-12-07T12:08:24;-5.56;66.55
75471;HTU21D;64051;46.320;48.028;2022-12-07T12:10:55;-5.60;66.67
75471;HTU21D;64051;46.320;48.028;2022-12-07T12:23:23;-5.63;67.78
75471;HTU21D;64051;46.320;48.028;2022-12-07T12:31:16;-5.69;68.17
75471;HTU21D;64051;46.320;48.028;2022-12-07T12:33:57;-5.71;68.37
75471;HTU21D;64051;46.320;48.028;2022-12-07T12:36:46;-5.71;67.39
75471;HTU21D;64051;46.320;48.028;2022-12-07T12:39:17;-5.72;67.79
75471;HTU21D;64051;46.320;48.028;2022-12-07T12:47:01;-5.72;67.36
75471;HTU21D;64051;46.320;48.028;2022-12-07T12:49:34;-5.76;67.98
75471;HTU21D;64051;46.320;48.028;2022-12-07T12:55:02;-5.77;67.49
75471;HTU21D;64051;46.320;48.028;2022-12-07T12:57:40;-5.78;67.30
75471;HTU21D;64051;46.320;48.028;2022-12-07T13:00:21;-5.79;67.97
75471;HTU21D;64051;46.320;48.028;2022-12-07T13:02:54;-5.84;68.10
75471;HTU21D;64051;46.320;48.028;2022-12-07T13:05:26;-5.87;68.33
75471;HTU21D;64051;46.320;48.028;2022-12-07T13:08:21;-5.90;68.57
75471;HTU21D;64051;46.320;48.028;2022-12-07T13:10:51;-5.96;68.64
75471;HTU21D;64051;46.320;48.028;2022-12-07T13:13:30;-5.94;67.88
75471;HTU21D;64051;46.320;48.028;2022-12-07T13:18:38;-5.98;67.60
75471;HTU21D;64051;46.320;48.028;2022-12-07T13:26:21;-6.00;67.93
75471;HTU21D;64051;46.320;48.028;2022-12-07T13:29:03;-6.02;67.91
75471;HTU21D;64051;46.320;48.028;2022-12-07T13:34:33;-6.06;67.59
75471;HTU21D;64051;46.320;48.028;2022-12-07T13:37:26;-6.12;68.28
75471;HTU21D;64051;46.320;48.028;2022-12-07T13:40:20;-6.17;68.92
75471;HTU21D;64051;46.320;48.028;2022-12-07T13:42:46;-6.17;68.34
75471;HTU21D;64051;46.320;48.028;2022-12-07T13:45:25;-6.18;68.62
75471;HTU21D;64051;46.320;48.028;2022-12-07T13:48:31;-6.17;68.91
75471;HTU21D;64051;46.320;48.028;2022-12-07T13:51:03;-6.16;68.56
75471;HTU21D;64051;46.320;48.028;2022-12-07T13:53:30;-6.15;68.20
75471;HTU21D;64051;46.320;48.028;2022-12-07T13:55:57;-6.13;67.86
75471;HTU21D;64051;46.320;48.028;2022-12-07T13:58:25;-6.12;68.26
75471;HTU21D;64051;46.320;48.028;2022-12-07T14:00:57;-6.12;69.14
75471;HTU21D;64051;46.320;48.028;2022-12-07T14:03:31;-6.09;68.23
75471;HTU21D;64051;46.320;48.028;2022-12-07T14:06:17;-6.04;67.71
75471;HTU21D;64051;46.320;48.028;2022-12-07T14:09:24;-6.05;69.28
75471;HTU21D;64051;46.320;48.028;2022-12-07T14:11:57;-6.04;68.60
75471;HTU21D;64051;46.320;48.028;2022-12-07T14:14:29;-6.04;69.48
75471;HTU21D;64051;46.320;48.028;2022-12-07T14:17:08;-6.00;68.37
75471;HTU21D;64051;46.320;48.028;2022-12-07T14:19:55;-6.00;68.68
75471;HTU21D;64051;46.320;48.028;2022-12-07T14:22:37;-5.97;68.52
75471;HTU21D;64051;46.320;48.028;2022-12-07T14:27:57;-5.96;68.09
75471;HTU21D;64051;46.320;48.028;2022-12-07T14:30:31;-5.93;68.54
75471;HTU21D;64051;46.320;48.028;2022-12-07T14:33:01;-5.94;68.65
75471;HTU21D;64051;46.320;48.028;2022-12-07T14:35:31;-5.94;68.44
75471;HTU21D;64051;46.320;48.028;2022-12-07T14:37:58;-5.97;69.47
75471;HTU21D;64051;46.320;48.028;2022-12-07T14:40:28;-5.93;69.10
75471;HTU21D;64051;46.320;48.028;2022-12-07T14:42:58;-5.92;68.72
75471;HTU21D;64051;46.320;48.028;2022-12-07T14:45:28;-5.92;70.19
75471;HTU21D;64051;46.320;48.028;2022-12-07T14:47:58;-5.92;69.53
75471;HTU21D;64051;46.320;48.028;2022-12-07T14:50:30;-5.92;68.94
75471;HTU21D;64051;46.320;48.028;2022-12-07T14:53:13;-5.92;69.64
75471;HTU21D;64051;46.320;48.028;2022-12-07T14:55:42;-5.92;69.45
75471;HTU21D;64051;46.320;48.028;2022-12-07T14:58:24;-5.94;69.25
75471;HTU21D;64051;46.320;48.028;2022-12-07T15:00:59;-5.98;69.81
75471;HTU21D;64051;46.320;48.028;2022-12-07T15:03:29;-6.00;70.36
75471;HTU21D;64051;46.320;48.028;2022-12-07T15:05:55;-6.00;70.03
75471;HTU21D;64051;46.320;48.028;2022-12-07T15:08:21;-6.01;70.44
75471;HTU21D;64051;46.320;48.028;2022-12-07T15:10:47;-6.02;69.96
75471;HTU21D;64051;46.320;48.028;2022-12-07T15:13:13;-6.02;69.81
75471;HTU21D;64051;46.320;48.028;2022-12-07T15:16:00;-6.06;69.94
75471;HTU21D;64051;46.320;48.028;2022-12-07T15:18:29;-6.05;70.13
75471;HTU21D;64051;46.320;48.028;2022-12-07T15:21:01;-6.07;70.81
75471;HTU21D;64051;46.320;48.028;2022-12-07T15:23:28;-6.07;70.45
75471;HTU21D;64051;46.320;48.028;2022-12-07T15:25:53;-6.08;71.12
75471;HTU21D;64051;46.320;48.028;2022-12-07T15:28:19;-6.11;70.97
75471;HTU21D;64051;46.320;48.028;2022-12-07T15:30:51;-6.07;70.50
75471;HTU21D;64051;46.320;48.028;2022-12-07T15:33:26;-6.08;70.77
75471;HTU21D;64051;46.320;48.028;2022-12-07T15:35:52;-6.09;70.96
75471;HTU21D;64051;46.320;48.028;2022-12-07T15:38:18;-6.09;71.62
75471;HTU21D;64051;46.320;48.028;2022-12-07T15:41:00;-6.11;71.51
75471;HTU21D;64051;46.320;48.028;2022-12-07T15:43:29;-6.06;71.38
75471;HTU21D;64051;46.320;48.028;2022-12-07T15:46:14;-6.05;70.93
75471;HTU21D;64051;46.320;48.028;2022-12-07T15:48:40;-6.06;71.56
75471;HTU21D;64051;46.320;48.028;2022-12-07T15:51:08;-6.06;71.03
75471;HTU21D;64051;46.320;48.028;2022-12-07T15:53:43;-6.06;71.03
75471;HTU21D;64051;46.320;48.028;2022-12-07T15:56:12;-6.04;71.06
75471;HTU21D;64051;46.320;48.028;2022-12-07T15:58:38;-6.04;71.08
75471;HTU21D;64051;46.320;48.028;2022-12-07T16:01:16;-6.03;70.30
75471;HTU21D;64051;46.320;48.028;2022-12-07T16:03:43;-6.03;70.79
75471;HTU21D;64051;46.320;48.028;2022-12-07T16:06:16;-6.05;70.23
75471;HTU21D;64051;46.320;48.028;2022-12-07T16:08:44;-6.07;70.89
75471;HTU21D;64051;46.320;48.028;2022-12-07T16:11:13;-6.08;70.55
75471;HTU21D;64051;46.320;48.028;2022-12-07T16:13:43;-6.09;71.12
75471;HTU21D;64051;46.320;48.028;2022-12-07T16:16:16;-6.09;70.74
75471;HTU21D;64051;46.320;48.028;2022-12-07T16:18:44;-6.12;71.22
75471;HTU21D;64051;46.320;48.028;2022-12-07T16:21:22;-6.09;71.45
75471;HTU21D;64051;46.320;48.028;2022-12-07T16:24:00;-6.11;70.90
75471;HTU21D;64051;46.320;48.028;2022-12-07T16:26:32;-6.07;71.32
75471;HTU21D;64051;46.320;48.028;2022-12-07T16:28:59;-6.06;71.13
75471;HTU21D;64051;46.320;48.028;2022-12-07T16:31:27;-6.06;70.92
75471;HTU21D;64051;46.320;48.028;2022-12-07T16:33:57;-6.06;70.90
75471;HTU21D;64051;46.320;48.028;2022-12-07T16:36:26;-6.05;70.58
75471;HTU21D;64051;46.320;48.028;2022-12-07T16:38:53;-6.06;71.46
75471;HTU21D;64051;46.320;48.028;2022-12-07T16:41:38;-6.04;71.08
75471;HTU21D;64051;46.320;48.028;2022-12-07T16:44:07;-6.05;71.79
75471;HTU21D;64051;46.320;48.028;2022-12-07T16:46:36;-6.03;70.66
75471;HTU21D;64051;46.320;48.028;2022-12-07T16:49:18;-6.03;70.91
75471;HTU21D;64051;46.320;48.028;2022-12-07T16:51:50;-6.03;70.87
75471;HTU21D;64051;46.320;48.028;2022-12-07T16:54:16;-6.02;70.64
75471;HTU21D;64051;46.320;48.028;2022-12-07T16:56:42;-6.03;71.20
75471;HTU21D;64051;46.320;48.028;2022-12-07T16:59:11;-6.01;71.13
75471;HTU21D;64051;46.320;48.028;2022-12-07T17:01:37;-6.00;71.10
75471;HTU21D;64051;46.320;48.028;2022-12-07T17:04:06;-5.97;71.18
75471;HTU21D;64051;46.320;48.028;2022-12-07T17:06:40;-5.96;71.05
75471;HTU21D;64051;46.320;48.028;2022-12-07T17:09:22;-5.96;70.70
75471;HTU21D;64051;46.320;48.028;2022-12-07T17:11:54;-5.98;71.34